createdAt,value
2023-04-16T00:02:04.376Z,73.55
2023-04-16T00:04:31.825Z,78.63
2023-04-16T00:06:58.855Z,71.90
2023-04-16T00:09:25.915Z,75.10
2023-04-16T00:11:53.129Z,79.13
2023-04-16T00:14:20.465Z,80.53
2023-04-16T00:16:47.652Z,80.45
2023-04-16T00:19:14.533Z,81.50
2023-04-16T00:21:41.423Z,80.07
2023-04-16T00:24:08.349Z,79.10
2023-04-16T00:26:35.176Z,76.75
2023-04-16T00:29:02.109Z,74.18
2023-04-16T00:31:31.025Z,75.00
2023-04-16T00:33:59.064Z,70.70
2023-04-16T00:36:28.074Z,70.50
2023-04-16T00:38:55.711Z,71.00
2023-04-16T00:41:25.353Z,76.45
2023-04-16T00:43:52.611Z,69.63
2023-04-16T00:46:21.369Z,76.57
2023-04-16T00:48:49.216Z,68.70
2023-04-16T00:51:16.860Z,64.25
2023-04-16T00:53:45.728Z,66.72
2023-04-16T00:56:13.448Z,75.95
2023-04-16T00:58:40.379Z,75.25
2023-04-16T01:01:07.328Z,66.70
2023-04-16T01:03:39.995Z,68.03
2023-04-16T01:06:07.780Z,67.95
2023-04-16T01:08:34.826Z,64.72
2023-04-16T01:11:02.518Z,73.80
2023-04-16T01:13:29.690Z,68.35
2023-04-16T01:15:56.701Z,59.30
2023-04-16T01:18:24.184Z,68.32
2023-04-16T01:20:51.607Z,66.00
2023-04-16T01:23:19.349Z,64.22
2023-04-16T01:25:47.041Z,68.18
2023-04-16T01:28:14.017Z,73.32
2023-04-16T01:30:43.179Z,70.45
2023-04-16T01:33:21.729Z,72.28
2023-04-16T01:35:48.793Z,70.40
2023-04-16T01:38:16.237Z,73.85
2023-04-16T01:40:43.983Z,79.47
2023-04-16T01:43:12.418Z,79.50
2023-04-16T01:45:39.435Z,81.90
2023-04-16T01:48:06.926Z,75.32
2023-04-16T01:50:34.022Z,87.65
2023-04-16T01:53:02.368Z,78.85
2023-04-16T01:55:29.401Z,79.53
2023-04-16T01:57:56.483Z,85.50
2023-04-16T02:00:27.149Z,86.05
2023-04-16T02:02:54.455Z,83.60
2023-04-16T02:05:26.556Z,81.47
2023-04-16T02:07:53.565Z,81.22
2023-04-16T02:10:20.885Z,67.00
2023-04-16T02:12:48.448Z,75.65
2023-04-16T02:15:16.619Z,70.75
2023-04-16T02:17:44.061Z,71.45
2023-04-16T02:20:11.482Z,78.95
2023-04-16T02:22:44.891Z,72.15
2023-04-16T02:25:16.181Z,70.82
2023-04-16T02:27:43.868Z,68.88
2023-04-16T02:30:23.359Z,73.68
2023-04-16T02:32:51.714Z,71.03
2023-04-16T02:35:19.586Z,73.47
2023-04-16T02:37:46.645Z,70.72
2023-04-16T02:40:13.449Z,62.50
2023-04-16T02:42:40.521Z,73.68
2023-04-16T02:45:08.851Z,72.40
2023-04-16T02:47:35.956Z,68.13
2023-04-16T02:50:04.028Z,66.47
2023-04-16T02:52:32.476Z,71.40
2023-04-16T02:55:00.028Z,69.97
2023-04-16T02:57:27.117Z,76.97
2023-04-16T02:59:54.045Z,78.57
2023-04-16T03:02:21.014Z,80.50
2023-04-16T03:04:48.187Z,73.28
2023-04-16T03:07:15.287Z,80.32
2023-04-16T03:09:42.179Z,79.97
2023-04-16T03:12:09.187Z,81.85
2023-04-16T03:14:36.404Z,89.13
2023-04-16T03:17:03.322Z,76.72
2023-04-16T03:19:30.556Z,91.00
2023-04-16T03:21:57.555Z,78.30
2023-04-16T03:24:24.404Z,85.68
2023-04-16T03:26:51.351Z,87.63
2023-04-16T03:29:21.555Z,91.75
2023-04-16T03:31:48.961Z,97.80
2023-04-16T03:34:16.216Z,85.53
2023-04-16T03:36:43.150Z,87.05
2023-04-16T03:39:10.387Z,84.25
2023-04-16T03:41:37.700Z,79.38
2023-04-16T03:44:04.710Z,87.90
2023-04-16T03:46:35.813Z,74.70
2023-04-16T03:49:02.809Z,76.40
2023-04-16T03:51:29.817Z,84.53
2023-04-16T03:53:57.310Z,71.55
2023-04-16T03:56:25.981Z,78.75
2023-04-16T03:58:53.637Z,81.30
2023-04-16T04:01:20.682Z,74.88
2023-04-16T04:03:47.733Z,72.40
2023-04-16T04:06:15.894Z,73.95
2023-04-16T04:08:43.030Z,73.07
2023-04-16T04:11:10.431Z,80.82
2023-04-16T04:13:39.203Z,76.55
2023-04-16T04:16:06.412Z,75.93
2023-04-16T04:18:33.526Z,78.18
2023-04-16T04:21:00.525Z,73.28
2023-04-16T04:23:30.258Z,67.00
2023-04-16T04:25:57.219Z,64.35
2023-04-16T04:28:24.806Z,70.32
2023-04-16T04:30:51.754Z,68.10
2023-04-16T04:33:19.087Z,65.88
2023-04-16T04:35:47.667Z,63.97
2023-04-16T04:38:16.239Z,71.22
2023-04-16T04:40:43.237Z,62.60
2023-04-16T04:43:10.158Z,67.75
2023-04-16T04:45:37.196Z,65.57
2023-04-16T04:48:05.456Z,61.10
2023-04-16T04:50:32.667Z,66.85
2023-04-16T04:52:59.456Z,63.88
2023-04-16T04:55:27.036Z,68.85
2023-04-16T04:57:53.812Z,66.68
2023-04-16T05:00:21.481Z,65.90
2023-04-16T05:02:53.841Z,62.40
2023-04-16T05:05:21.077Z,61.38
2023-04-16T05:07:47.830Z,62.05
2023-04-16T05:10:14.819Z,60.15
2023-04-16T05:12:41.724Z,55.45
2023-04-16T05:15:09.112Z,55.88
2023-04-16T05:17:35.988Z,59.00
2023-04-16T05:20:02.927Z,55.45
2023-04-16T05:22:29.774Z,66.00
2023-04-16T05:24:56.656Z,61.30
2023-04-16T05:27:23.587Z,60.65
2023-04-16T05:29:50.491Z,59.95
2023-04-16T05:32:17.428Z,49.72
2023-04-16T05:34:44.251Z,52.55
2023-04-16T05:37:11.222Z,55.53
2023-04-16T05:39:38.054Z,49.85
2023-04-16T05:42:04.885Z,48.47
2023-04-16T05:44:31.894Z,49.30
2023-04-16T05:46:58.762Z,50.45
2023-04-16T05:49:25.693Z,49.20
2023-04-16T05:51:52.493Z,56.03
2023-04-16T05:54:19.399Z,47.97
2023-04-16T05:56:46.226Z,51.25
2023-04-16T05:59:13.127Z,54.00
2023-04-16T06:01:41.299Z,49.60
2023-04-16T06:04:08.269Z,47.80
2023-04-16T06:06:37.555Z,51.90
2023-04-16T06:09:04.547Z,48.78
2023-04-16T06:11:31.435Z,46.78
2023-04-16T06:13:58.313Z,45.38
2023-04-16T06:16:25.586Z,48.17
2023-04-16T06:18:52.501Z,44.85
2023-04-16T06:21:19.418Z,46.33
2023-04-16T06:23:46.276Z,43.58
2023-04-16T06:26:13.041Z,45.25
2023-04-16T06:28:39.834Z,44.85
2023-04-16T06:31:06.739Z,48.95
2023-04-16T06:33:33.579Z,46.33
2023-04-16T06:36:00.418Z,44.63
2023-04-16T06:38:27.422Z,36.25
2023-04-16T06:40:54.361Z,38.92
2023-04-16T06:43:21.854Z,31.73
2023-04-16T06:45:48.694Z,37.88
2023-04-16T06:48:15.695Z,38.58
2023-04-16T06:50:42.605Z,33.47
2023-04-16T06:53:09.521Z,37.92
2023-04-16T06:55:36.386Z,37.80
2023-04-16T06:58:03.862Z,31.73
2023-04-16T07:00:30.739Z,31.65
2023-04-16T07:02:58.692Z,36.85
2023-04-16T07:05:26.351Z,36.20
2023-04-16T07:07:53.172Z,30.30
2023-04-16T07:10:19.988Z,31.15
2023-04-16T07:12:46.807Z,30.05
2023-04-16T07:15:13.743Z,29.27
2023-04-16T07:17:40.693Z,32.05
2023-04-16T07:20:08.332Z,33.40
2023-04-16T07:22:35.137Z,30.80
2023-04-16T07:25:01.986Z,32.55
2023-04-16T07:27:28.784Z,30.15
2023-04-16T07:29:55.980Z,29.88
2023-04-16T07:32:23.054Z,32.10
2023-04-16T07:34:49.889Z,32.38
2023-04-16T07:37:16.702Z,32.42
2023-04-16T07:39:43.530Z,36.10
2023-04-16T07:42:10.782Z,29.45
2023-04-16T07:44:37.663Z,31.20
2023-04-16T07:47:05.766Z,27.00
2023-04-16T07:49:32.866Z,29.38
2023-04-16T07:51:59.682Z,28.08
2023-04-16T07:54:28.490Z,29.00
2023-04-16T07:56:56.120Z,30.48
2023-04-16T07:59:24.306Z,30.63
2023-04-16T08:01:54.204Z,28.13
2023-04-16T08:04:25.620Z,30.45
2023-04-16T08:06:52.916Z,29.73
2023-04-16T08:09:21.096Z,26.10
2023-04-16T08:11:49.439Z,28.75
2023-04-16T08:14:17.618Z,27.98
2023-04-16T08:16:44.716Z,25.17
2023-04-16T08:19:11.786Z,27.45
2023-04-16T08:21:39.049Z,28.17
2023-04-16T08:24:06.276Z,25.27
2023-04-16T08:26:33.116Z,27.20
2023-04-16T08:28:59.963Z,30.25
2023-04-16T08:31:27.025Z,30.77
2023-04-16T08:33:53.912Z,25.08
2023-04-16T08:36:21.051Z,26.75
2023-04-16T08:38:47.837Z,25.60
2023-04-16T08:41:15.219Z,28.73
2023-04-16T08:43:48.766Z,28.73
2023-04-16T08:46:17.961Z,27.15
2023-04-16T08:48:49.625Z,27.70
2023-04-16T08:51:18.637Z,27.65
2023-04-16T08:54:05.794Z,24.67
2023-04-16T08:56:36.916Z,25.48
2023-04-16T08:59:07.294Z,28.42
2023-04-16T09:01:35.635Z,25.60
2023-04-16T09:04:03.551Z,27.13
2023-04-16T09:06:31.761Z,25.77
2023-04-16T09:08:59.727Z,25.77
2023-04-16T09:11:26.842Z,27.33
2023-04-16T09:13:54.035Z,26.05
2023-04-16T09:16:21.683Z,28.75
2023-04-16T09:18:48.586Z,24.65
2023-04-16T09:21:15.604Z,25.02
2023-04-16T09:23:42.534Z,26.70
2023-04-16T09:26:09.501Z,26.17
2023-04-16T09:28:47.119Z,31.48
2023-04-16T09:31:13.963Z,25.60
2023-04-16T09:33:41.788Z,27.67
2023-04-16T09:36:09.273Z,24.17
2023-04-16T09:38:50.166Z,27.90
2023-04-16T09:41:17.438Z,23.70
2023-04-16T09:43:59.247Z,24.08
2023-04-16T09:46:36.717Z,33.03
2023-04-16T09:49:16.971Z,26.23
2023-04-16T09:51:48.258Z,30.35
2023-04-16T09:54:16.063Z,26.30
2023-04-16T09:56:44.756Z,27.30
2023-04-16T09:59:21.718Z,30.45
2023-04-16T10:02:14.343Z,30.77
2023-04-16T10:04:51.150Z,25.90
2023-04-16T10:07:19.312Z,24.98
2023-04-16T10:09:48.736Z,23.80
2023-04-16T10:12:16.368Z,24.25
2023-04-16T10:14:43.411Z,24.05
2023-04-16T10:17:10.514Z,27.75
2023-04-16T10:19:37.917Z,26.98
2023-04-16T10:22:05.680Z,24.45
2023-04-16T10:24:34.548Z,25.52
2023-04-16T10:27:01.596Z,24.83
2023-04-16T10:29:30.248Z,27.30
2023-04-16T10:31:57.950Z,26.45
2023-04-16T10:34:26.093Z,29.15
2023-04-16T10:36:54.283Z,23.48
2023-04-16T10:39:24.007Z,26.23
2023-04-16T10:44:19.718Z,25.73
2023-04-16T10:46:49.985Z,27.75
2023-04-16T10:49:19.345Z,26.38
2023-04-16T10:52:00.792Z,25.35
2023-04-16T10:54:32.594Z,26.05
2023-04-16T10:57:04.533Z,25.10
2023-04-16T10:59:35.057Z,29.70
2023-04-16T11:02:08.080Z,26.20
2023-04-16T11:04:37.648Z,27.17
2023-04-16T11:07:07.030Z,24.08
2023-04-16T11:09:52.400Z,26.35
2023-04-16T11:12:22.485Z,29.55
2023-04-16T11:14:55.132Z,25.48
2023-04-16T11:17:22.420Z,23.95
2023-04-16T11:19:49.486Z,25.60
2023-04-16T11:22:18.119Z,25.02
2023-04-16T11:24:46.550Z,21.08
2023-04-16T11:27:14.744Z,26.02
2023-04-16T11:29:42.412Z,26.15
2023-04-16T11:32:09.245Z,23.50
2023-04-16T11:34:45.023Z,21.20
2023-04-16T11:37:11.957Z,24.38
2023-04-16T11:39:49.880Z,23.90
2023-04-16T11:42:23.261Z,24.10
2023-04-16T11:44:55.210Z,19.20
2023-04-16T11:47:24.196Z,24.42
2023-04-16T11:49:51.661Z,23.10
2023-04-16T11:52:33.797Z,22.10
2023-04-16T11:55:00.645Z,24.20
2023-04-16T11:57:31.612Z,20.60
2023-04-16T12:00:01.337Z,24.15
2023-04-16T12:02:50.079Z,23.13
2023-04-16T12:05:35.183Z,20.92
2023-04-16T12:08:04.398Z,25.80
2023-04-16T12:10:35.315Z,28.15
2023-04-16T12:13:15.618Z,21.17
2023-04-16T12:15:57.325Z,18.92
2023-04-16T12:18:28.938Z,25.10
2023-04-16T12:20:55.805Z,22.80
2023-04-16T12:23:27.682Z,20.42
2023-04-16T12:25:55.558Z,22.65
2023-04-16T12:28:34.290Z,19.02
2023-04-16T12:31:02.064Z,21.05
2023-04-16T12:33:29.604Z,17.40
2023-04-16T12:35:56.934Z,17.08
2023-04-16T12:38:24.629Z,21.77
2023-04-16T12:40:52.170Z,18.27
2023-04-16T12:43:19.993Z,21.73
2023-04-16T12:45:46.964Z,17.23
2023-04-16T12:48:13.841Z,17.55
2023-04-16T12:50:40.843Z,17.27
2023-04-16T12:53:07.789Z,17.17
2023-04-16T12:55:34.650Z,19.63
2023-04-16T12:58:01.880Z,21.17
2023-04-16T13:00:28.747Z,22.38
2023-04-16T13:02:56.347Z,20.33
2023-04-16T13:05:23.307Z,29.27
2023-04-16T13:07:50.139Z,26.40
2023-04-16T13:10:17.616Z,25.80
2023-04-16T13:12:44.551Z,24.27
2023-04-16T13:15:11.758Z,25.17
2023-04-16T13:17:38.645Z,22.98
2023-04-16T13:20:06.064Z,24.63
2023-04-16T13:22:33.550Z,25.33
2023-04-16T13:25:00.597Z,25.40
2023-04-16T13:27:27.494Z,23.70
2023-04-16T13:29:54.405Z,24.52
2023-04-16T13:32:21.431Z,25.10
2023-04-16T13:34:48.329Z,22.35
2023-04-16T13:37:15.199Z,26.13
2023-04-16T13:39:42.034Z,24.95
2023-04-16T13:42:08.834Z,24.23
2023-04-16T13:44:35.756Z,25.90
2023-04-16T13:47:02.720Z,25.30
2023-04-16T13:49:29.868Z,29.02
2023-04-16T13:51:56.765Z,26.05
2023-04-16T13:54:23.611Z,24.25
2023-04-16T13:56:51.372Z,21.50
2023-04-16T13:59:18.694Z,27.33
2023-04-16T14:01:45.693Z,24.00
2023-04-16T14:04:12.652Z,22.55
2023-04-16T14:06:39.466Z,28.58
2023-04-16T14:09:06.328Z,28.42
2023-04-16T14:11:33.375Z,28.58
2023-04-16T14:14:00.289Z,27.02
2023-04-16T14:16:27.763Z,33.33
2023-04-16T14:18:54.718Z,30.33
2023-04-16T14:21:21.637Z,31.17
2023-04-16T14:23:48.503Z,29.20
2023-04-16T14:26:15.802Z,32.38
2023-04-16T14:28:42.669Z,33.97
2023-04-16T14:31:09.623Z,23.25
2023-04-16T14:33:37.103Z,24.40
2023-04-16T14:36:04.398Z,23.00
2023-04-16T14:38:31.473Z,28.17
2023-04-16T14:40:58.576Z,23.95
2023-04-16T14:43:25.411Z,23.90
2023-04-16T14:45:52.912Z,24.75
2023-04-16T14:48:19.850Z,25.35
2023-04-16T14:50:46.790Z,22.42
2023-04-16T14:53:14.034Z,22.65
2023-04-16T14:55:41.048Z,29.98
2023-04-16T14:58:08.013Z,22.15
2023-04-16T15:00:35.783Z,23.58
2023-04-16T15:03:02.856Z,20.27
2023-04-16T15:05:31.714Z,20.20
2023-04-16T15:07:58.606Z,24.67
2023-04-16T15:10:25.525Z,22.48
2023-04-16T15:12:52.384Z,21.17
2023-04-16T15:15:19.284Z,22.45
2023-04-16T15:17:46.195Z,20.58
2023-04-16T15:20:13.667Z,22.20
2023-04-16T15:22:40.776Z,19.75
2023-04-16T15:25:08.134Z,20.30
2023-04-16T15:27:35.092Z,24.15
2023-04-16T15:30:02.128Z,24.23
2023-04-16T15:32:29.079Z,21.48
2023-04-16T15:34:56.330Z,19.27
2023-04-16T15:37:24.098Z,19.83
2023-04-16T15:39:51.042Z,19.88
2023-04-16T15:42:17.925Z,18.08
2023-04-16T15:44:44.878Z,18.45
2023-04-16T15:47:11.744Z,20.27
2023-04-16T15:49:38.684Z,22.48
2023-04-16T15:52:05.886Z,21.13
2023-04-16T15:54:32.811Z,20.83
2023-04-16T15:56:59.672Z,22.30
2023-04-16T15:59:27.090Z,20.17
2023-04-16T16:01:54.083Z,20.33
2023-04-16T16:04:26.521Z,22.10
2023-04-16T16:06:54.116Z,31.75
2023-04-16T16:09:26.015Z,21.55
2023-04-16T16:11:54.550Z,22.02
2023-04-16T16:14:22.476Z,21.30
2023-04-16T16:16:49.429Z,20.50
2023-04-16T16:19:16.739Z,24.58
2023-04-16T16:21:43.709Z,23.67
2023-04-16T16:24:10.491Z,21.63
2023-04-16T16:26:37.764Z,20.00
2023-04-16T16:29:05.824Z,20.15
2023-04-16T16:31:32.714Z,22.85
2023-04-16T16:33:59.601Z,20.52
2023-04-16T16:36:26.791Z,22.10
2023-04-16T16:38:53.674Z,19.90
2023-04-16T16:41:20.793Z,22.92
2023-04-16T16:43:47.662Z,21.77
2023-04-16T16:46:14.603Z,26.40
2023-04-16T16:48:41.439Z,25.38
2023-04-16T16:51:11.534Z,23.85
2023-04-16T16:53:38.435Z,22.83
2023-04-16T16:56:05.558Z,23.00
2023-04-16T16:58:32.348Z,24.50
2023-04-16T17:00:59.357Z,25.95
2023-04-16T17:03:26.373Z,23.20
2023-04-16T17:05:53.282Z,23.65
2023-04-16T17:08:20.138Z,19.52
2023-04-16T17:10:46.989Z,21.38
2023-04-16T17:13:15.382Z,26.00
2023-04-16T17:15:42.183Z,22.30
2023-04-16T17:18:09.041Z,20.67
2023-04-16T17:20:35.951Z,21.50
2023-04-16T17:23:03.244Z,21.90
2023-04-16T17:25:30.301Z,19.85
2023-04-16T17:27:57.215Z,24.00
2023-04-16T17:30:26.114Z,25.30
2023-04-16T17:32:55.988Z,27.42
2023-04-16T17:35:23.071Z,26.05
2023-04-16T17:37:49.911Z,22.60
2023-04-16T17:40:18.424Z,20.40
2023-04-16T17:42:45.760Z,22.27
2023-04-16T17:45:12.912Z,24.58
2023-04-16T17:47:39.789Z,25.42
2023-04-16T17:50:07.741Z,25.48
2023-04-16T17:52:34.566Z,21.10
2023-04-16T17:55:01.774Z,29.52
2023-04-16T17:57:29.060Z,25.90
2023-04-16T17:59:56.556Z,26.75
2023-04-16T18:02:23.731Z,25.55
2023-04-16T18:04:51.623Z,26.98
2023-04-16T18:07:18.577Z,27.80
2023-04-16T18:09:45.492Z,28.95
2023-04-16T18:12:12.346Z,27.48
2023-04-16T18:14:40.820Z,29.52
2023-04-16T18:17:07.694Z,31.15
2023-04-16T18:19:35.758Z,28.38
2023-04-16T18:22:02.878Z,30.80
2023-04-16T18:24:29.899Z,31.42
2023-04-16T18:26:56.985Z,31.67
2023-04-16T18:29:25.256Z,29.13
2023-04-16T18:31:52.549Z,29.63
2023-04-16T18:34:19.623Z,30.58
2023-04-16T18:36:46.939Z,25.95
2023-04-16T18:39:13.882Z,26.50
2023-04-16T18:41:41.847Z,41.53
2023-04-16T18:44:10.897Z,32.85
2023-04-16T18:46:37.826Z,34.38
2023-04-16T18:49:04.729Z,28.60
2023-04-16T18:51:31.871Z,31.40
2023-04-16T18:53:58.811Z,29.27
2023-04-16T18:56:25.745Z,34.55
2023-04-16T18:58:52.667Z,32.72
2023-04-16T19:01:19.595Z,30.52
2023-04-16T19:03:46.647Z,32.22
2023-04-16T19:06:13.528Z,36.05
2023-04-16T19:08:40.478Z,30.42
2023-04-16T19:11:07.309Z,33.85
2023-04-16T19:13:34.295Z,34.47
2023-04-16T19:16:02.401Z,29.13
2023-04-16T19:18:29.321Z,30.00
2023-04-16T19:21:02.281Z,28.95
2023-04-16T19:23:29.612Z,34.63
2023-04-16T19:25:57.212Z,29.25
2023-04-16T19:28:24.988Z,38.10
2023-04-16T19:30:52.818Z,31.73
2023-04-16T19:33:20.197Z,28.75
2023-04-16T19:35:47.528Z,36.70
2023-04-16T19:38:14.365Z,33.60
2023-04-16T19:40:44.562Z,32.03
2023-04-16T19:43:11.582Z,33.08
2023-04-16T19:45:46.353Z,29.60
2023-04-16T19:48:13.225Z,39.42
2023-04-16T19:50:44.055Z,31.65
2023-04-16T19:53:11.762Z,34.03
2023-04-16T19:55:42.139Z,35.15
2023-04-16T19:58:09.729Z,34.83
2023-04-16T20:00:38.872Z,33.55
2023-04-16T20:03:06.487Z,39.97
2023-04-16T20:05:33.736Z,36.53
2023-04-16T20:08:00.709Z,37.00
2023-04-16T20:10:28.147Z,43.78
2023-04-16T20:12:54.994Z,40.65
2023-04-16T20:15:21.887Z,45.35
2023-04-16T20:17:48.764Z,38.63
2023-04-16T20:20:16.592Z,42.35
2023-04-16T20:22:43.886Z,43.22
2023-04-16T20:25:10.920Z,38.28
2023-04-16T20:27:37.879Z,49.72
2023-04-16T20:30:06.455Z,45.90
2023-04-16T20:32:33.458Z,33.63
2023-04-16T20:35:00.577Z,45.55
2023-04-16T20:37:29.340Z,44.25
2023-04-16T20:39:56.574Z,44.67
2023-04-16T20:42:26.514Z,40.13
2023-04-16T20:44:56.785Z,39.10
2023-04-16T20:47:23.978Z,40.75
2023-04-16T20:49:53.118Z,41.42
2023-04-16T20:52:20.341Z,45.40
2023-04-16T20:54:48.220Z,39.40
2023-04-16T20:57:15.207Z,43.60
2023-04-16T20:59:42.460Z,47.55
2023-04-16T21:02:09.568Z,40.22
2023-04-16T21:04:36.548Z,49.10
2023-04-16T21:07:04.414Z,43.72
2023-04-16T21:09:31.790Z,43.83
2023-04-16T21:11:58.739Z,48.40
2023-04-16T21:14:25.618Z,39.42
2023-04-16T21:16:52.505Z,36.40
2023-04-16T21:19:19.485Z,42.05
2023-04-16T21:21:46.814Z,41.03
2023-04-16T21:24:13.837Z,39.35
2023-04-16T21:26:40.932Z,39.78
2023-04-16T21:29:07.871Z,43.35
2023-04-16T21:31:34.963Z,40.67
2023-04-16T21:34:02.016Z,38.03
2023-04-16T21:36:29.438Z,42.85
2023-04-16T21:38:56.408Z,41.35
2023-04-16T21:41:27.812Z,46.97
2023-04-16T21:43:54.734Z,37.08
2023-04-16T21:46:23.630Z,46.50
2023-04-16T21:48:51.025Z,37.35
2023-04-16T21:51:18.253Z,44.22
2023-04-16T21:53:45.113Z,40.50
2023-04-16T21:56:12.005Z,37.80
2023-04-16T21:58:38.814Z,45.92
2023-04-16T22:01:06.492Z,46.33
2023-04-16T22:03:34.837Z,40.53
2023-04-16T22:06:02.154Z,41.58
2023-04-16T22:08:29.909Z,43.28
2023-04-16T22:10:58.910Z,37.90
2023-04-16T22:13:30.199Z,44.28
2023-04-16T22:15:57.909Z,43.83
2023-04-16T22:18:25.844Z,35.05
2023-04-16T22:20:56.058Z,47.80
2023-04-16T22:23:26.207Z,42.50
2023-04-16T22:25:55.081Z,42.17
2023-04-16T22:28:22.089Z,56.35
2023-04-16T22:30:48.992Z,49.95
2023-04-16T22:33:16.042Z,39.08
2023-04-16T22:35:42.949Z,50.03
2023-04-16T22:38:10.308Z,43.10
2023-04-16T22:40:37.378Z,52.42
2023-04-16T22:43:04.695Z,44.72
2023-04-16T22:45:31.662Z,46.65
2023-04-16T22:47:58.749Z,44.60
2023-04-16T22:50:25.650Z,46.53
2023-04-16T22:52:52.461Z,47.55
2023-04-16T22:55:19.479Z,46.97
2023-04-16T22:57:47.687Z,45.55
2023-04-16T23:00:18.112Z,45.75
2023-04-16T23:02:45.741Z,44.88
2023-04-16T23:05:12.660Z,51.05
2023-04-16T23:07:39.512Z,53.38
2023-04-16T23:10:08.741Z,52.25
2023-04-16T23:12:37.583Z,50.35
2023-04-16T23:15:06.844Z,57.25
2023-04-16T23:17:34.084Z,50.50
2023-04-16T23:20:01.151Z,57.72
2023-04-16T23:22:28.195Z,55.20
2023-04-16T23:24:55.129Z,46.60
2023-04-16T23:27:22.010Z,54.90
2023-04-16T23:29:48.890Z,49.70
2023-04-16T23:32:15.787Z,54.25
2023-04-16T23:34:42.626Z,48.13
2023-04-16T23:37:09.517Z,52.72
2023-04-16T23:39:36.358Z,62.22
2023-04-16T23:42:03.397Z,50.08
2023-04-16T23:44:30.302Z,54.22
2023-04-16T23:46:57.536Z,49.97
2023-04-16T23:49:24.794Z,54.85
2023-04-16T23:51:51.715Z,53.22
2023-04-16T23:54:18.703Z,55.90
2023-04-16T23:56:45.753Z,57.65
2023-04-16T23:59:12.954Z,54.17
